createdAt,value
2022-11-13T00:01:25.561Z,100.00
2022-11-13T00:03:52.777Z,100.00
2022-11-13T00:06:20.377Z,100.00
2022-11-13T00:08:47.926Z,100.00
2022-11-13T00:11:18.625Z,100.00
2022-11-13T00:13:53.463Z,100.00
2022-11-13T00:16:21.915Z,100.00
2022-11-13T00:18:48.823Z,100.00
2022-11-13T00:21:22.456Z,100.00
2022-11-13T00:23:49.955Z,100.00
2022-11-13T00:26:23.653Z,100.00
2022-11-13T00:28:55.811Z,100.00
2022-11-13T00:31:23.320Z,100.00
2022-11-13T00:34:25.863Z,100.00
2022-11-13T00:36:37.870Z,100.00
2022-11-13T00:39:04.757Z,100.00
2022-11-13T00:41:31.602Z,100.00
2022-11-13T00:43:58.401Z,100.00
2022-11-13T00:46:25.288Z,100.00
2022-11-13T00:48:52.178Z,100.00
2022-11-13T00:51:19.875Z,100.00
2022-11-13T00:53:47.169Z,100.00
2022-11-13T00:56:14.027Z,100.00
2022-11-13T00:58:41.185Z,100.00
2022-11-13T01:01:14.345Z,100.00
2022-11-13T01:03:41.897Z,100.00
2022-11-13T01:06:14.875Z,100.00
2022-11-13T01:08:42.294Z,100.00
2022-11-13T01:11:20.627Z,100.00
2022-11-13T01:13:50.057Z,100.00
2022-11-13T01:16:21.463Z,100.00
2022-11-13T01:18:48.817Z,100.00
2022-11-13T01:21:20.780Z,100.00
2022-11-13T01:23:48.568Z,100.00
2022-11-13T01:26:23.815Z,100.00
2022-11-13T01:28:50.882Z,100.00
2022-11-13T01:31:22.947Z,100.00
2022-11-13T01:33:50.573Z,100.00
2022-11-13T01:36:25.055Z,100.00
2022-11-13T01:38:52.407Z,100.00
2022-11-13T01:41:25.358Z,100.00
2022-11-13T01:43:54.298Z,100.00
2022-11-13T01:46:27.200Z,100.00
2022-11-13T01:49:12.185Z,100.00
2022-11-13T01:51:42.649Z,100.00
2022-11-13T01:54:26.176Z,100.00
2022-11-13T01:56:55.333Z,100.00
2022-11-13T01:59:31.275Z,100.00
2022-11-13T02:02:11.383Z,100.00
2022-11-13T02:04:38.478Z,100.00
2022-11-13T02:07:12.093Z,100.00
2022-11-13T02:09:49.258Z,100.00
2022-11-13T02:12:23.438Z,100.00
2022-11-13T02:14:54.254Z,100.00
2022-11-13T02:17:33.579Z,100.00
2022-11-13T02:20:05.377Z,100.00
2022-11-13T02:22:54.950Z,100.00
2022-11-13T02:25:22.963Z,100.00
2022-11-13T02:27:50.952Z,100.00
2022-11-13T02:30:26.864Z,100.00
2022-11-13T02:32:57.014Z,100.00
2022-11-13T02:35:33.873Z,100.00
2022-11-13T02:38:05.030Z,100.00
2022-11-13T02:40:34.826Z,100.00
2022-11-13T02:43:01.704Z,100.00
2022-11-13T02:45:28.772Z,100.00
2022-11-13T02:47:55.790Z,100.00
2022-11-13T02:50:22.757Z,100.00
2022-11-13T02:52:49.741Z,100.00
2022-11-13T02:55:16.785Z,100.00
2022-11-13T02:57:43.684Z,100.00
2022-11-13T03:00:14.114Z,100.00
2022-11-13T03:02:41.710Z,100.00
2022-11-13T03:05:12.550Z,100.00
2022-11-13T03:07:40.788Z,100.00
2022-11-13T03:10:09.046Z,100.00
2022-11-13T03:12:38.050Z,100.00
2022-11-13T03:15:07.882Z,100.00
2022-11-13T03:17:35.933Z,100.00
2022-11-13T03:20:04.618Z,100.00
2022-11-13T03:22:31.546Z,100.00
2022-11-13T03:24:58.525Z,100.00
2022-11-13T03:27:25.432Z,100.00
2022-11-13T03:29:52.249Z,100.00
2022-11-13T03:32:23.834Z,100.00
2022-11-13T03:34:50.694Z,100.00
2022-11-13T03:37:17.544Z,100.00
2022-11-13T03:39:44.423Z,100.00
2022-11-13T03:42:11.223Z,100.00
2022-11-13T03:44:38.093Z,100.00
2022-11-13T03:47:07.831Z,100.00
2022-11-13T03:49:34.769Z,100.00
2022-11-13T03:52:02.011Z,100.00
2022-11-13T03:54:29.002Z,100.00
2022-11-13T03:56:56.152Z,100.00
2022-11-13T03:59:22.995Z,100.00
2022-11-13T04:01:49.947Z,100.00
2022-11-13T04:04:17.089Z,100.00
2022-11-13T04:06:44.157Z,100.00
2022-11-13T04:09:11.444Z,100.00
2022-11-13T04:11:38.374Z,100.00
2022-11-13T04:14:05.216Z,100.00
2022-11-13T04:16:32.025Z,100.00
2022-11-13T04:18:59.037Z,100.00
2022-11-13T04:21:36.154Z,100.00
2022-11-13T04:24:03.208Z,100.00
2022-11-13T04:26:30.114Z,100.00
2022-11-13T04:28:57.164Z,100.00
2022-11-13T04:31:24.089Z,100.00
2022-11-13T04:33:50.887Z,100.00
2022-11-13T04:36:17.810Z,100.00
2022-11-13T04:38:44.609Z,100.00
2022-11-13T04:41:32.187Z,100.00
2022-11-13T04:43:59.053Z,100.00
2022-11-13T04:46:28.605Z,100.00
2022-11-13T04:48:55.448Z,100.00
2022-11-13T04:51:22.481Z,100.00
2022-11-13T04:53:49.433Z,100.00
2022-11-13T04:56:16.423Z,100.00
2022-11-13T04:58:43.489Z,100.00
2022-11-13T05:01:10.394Z,100.00
2022-11-13T05:03:38.056Z,100.00
2022-11-13T05:06:10.050Z,100.00
2022-11-13T05:08:37.472Z,100.00
2022-11-13T05:11:04.630Z,100.00
2022-11-13T05:13:35.367Z,100.00
2022-11-13T05:16:11.625Z,100.00
2022-11-13T05:18:39.553Z,100.00
2022-11-13T05:21:08.577Z,100.00
2022-11-13T05:23:36.182Z,100.00
2022-11-13T05:26:09.824Z,100.00
2022-11-13T05:28:37.678Z,100.00
2022-11-13T05:31:05.435Z,100.00
2022-11-13T05:33:32.486Z,100.00
2022-11-13T05:36:08.720Z,100.00
2022-11-13T05:38:36.657Z,100.00
2022-11-13T05:41:10.073Z,100.00
2022-11-13T05:43:38.443Z,100.00
2022-11-13T05:46:17.446Z,100.00
2022-11-13T05:48:45.908Z,100.00
2022-11-13T05:51:19.494Z,100.00
2022-11-13T05:53:46.530Z,100.00
2022-11-13T05:56:23.353Z,100.00
2022-11-13T05:58:52.306Z,100.00
2022-11-13T06:01:32.023Z,100.00
2022-11-13T06:04:01.017Z,100.00
2022-11-13T06:06:29.415Z,100.00
2022-11-13T06:08:58.469Z,100.00
2022-11-13T06:11:29.128Z,100.00
2022-11-13T06:13:57.595Z,100.00
2022-11-13T06:16:33.625Z,100.00
2022-11-13T06:19:02.580Z,100.00
2022-11-13T06:21:33.735Z,100.00
2022-11-13T06:24:02.224Z,100.00
2022-11-13T06:26:36.024Z,100.00
2022-11-13T06:29:05.245Z,100.00
2022-11-13T06:31:35.233Z,100.00
2022-11-13T06:34:02.746Z,100.00
2022-11-13T06:36:34.361Z,100.00
2022-11-13T06:39:02.426Z,100.00
2022-11-13T06:41:43.653Z,100.00
2022-11-13T06:44:10.490Z,100.00
2022-11-13T06:46:39.932Z,100.00
2022-11-13T06:49:07.295Z,100.00
2022-11-13T06:51:34.185Z,100.00
2022-11-13T06:54:01.215Z,100.00
2022-11-13T06:56:28.179Z,100.00
2022-11-13T06:58:56.478Z,100.00
2022-11-13T07:01:25.980Z,100.00
2022-11-13T07:03:53.343Z,100.00
2022-11-13T07:06:23.481Z,100.00
2022-11-13T07:08:52.749Z,100.00
2022-11-13T07:11:23.129Z,100.00
2022-11-13T07:13:50.993Z,100.00
2022-11-13T07:16:18.434Z,100.00
2022-11-13T07:18:54.872Z,100.00
2022-11-13T07:21:26.221Z,100.00
2022-11-13T07:23:53.401Z,100.00
2022-11-13T07:26:20.572Z,100.00
2022-11-13T07:28:48.666Z,100.00
2022-11-13T07:31:17.646Z,100.00
2022-11-13T07:33:44.950Z,100.00
2022-11-13T07:36:15.175Z,100.00
2022-11-13T07:38:42.980Z,100.00
2022-11-13T07:41:09.938Z,100.00
2022-11-13T07:43:36.758Z,100.00
2022-11-13T07:46:03.908Z,100.00
2022-11-13T07:48:31.270Z,100.00
2022-11-13T07:51:02.835Z,100.00
2022-11-13T07:53:30.169Z,100.00
2022-11-13T07:56:05.204Z,100.00
2022-11-13T07:58:32.285Z,100.00
2022-11-13T08:01:04.824Z,100.00
2022-11-13T08:03:32.386Z,100.00
2022-11-13T08:06:07.627Z,100.00
2022-11-13T08:08:35.417Z,100.00
2022-11-13T08:11:09.651Z,100.00
2022-11-13T08:13:37.207Z,100.00
2022-11-13T08:16:05.088Z,100.00
2022-11-13T08:18:33.599Z,100.00
2022-11-13T08:21:10.510Z,100.00
2022-11-13T08:23:42.386Z,100.00
2022-11-13T08:26:11.290Z,100.00
2022-11-13T08:28:38.621Z,100.00
2022-11-13T08:31:09.597Z,100.00
2022-11-13T08:33:36.454Z,100.00
2022-11-13T08:36:03.734Z,100.00
2022-11-13T08:38:30.915Z,100.00
2022-11-13T08:41:04.411Z,100.00
2022-11-13T08:43:34.250Z,100.00
2022-11-13T08:46:01.324Z,100.00
2022-11-13T08:48:28.960Z,100.00
2022-11-13T08:50:57.728Z,100.00
2022-11-13T08:53:25.467Z,100.00
2022-11-13T08:55:53.063Z,100.00
2022-11-13T08:58:20.021Z,100.00
2022-11-13T09:00:47.238Z,100.00
2022-11-13T09:03:14.202Z,100.00
2022-11-13T09:05:41.064Z,100.00
2022-11-13T09:08:17.030Z,100.00
2022-11-13T09:10:43.890Z,100.00
2022-11-13T09:13:18.471Z,100.00
2022-11-13T09:15:45.309Z,100.00
2022-11-13T09:18:12.213Z,100.00
2022-11-13T09:20:39.106Z,100.00
2022-11-13T09:23:12.683Z,100.00
2022-11-13T09:25:39.511Z,100.00
2022-11-13T09:28:07.346Z,100.00
2022-11-13T09:30:34.749Z,100.00
2022-11-13T09:33:02.181Z,100.00
2022-11-13T09:35:37.127Z,100.00
2022-11-13T09:38:15.731Z,100.00
2022-11-13T09:41:13.312Z,100.00
2022-11-13T09:43:48.797Z,100.00
2022-11-13T09:46:46.718Z,100.00
2022-11-13T09:49:16.180Z,100.00
2022-11-13T09:52:03.931Z,100.00
2022-11-13T09:54:34.039Z,100.00
2022-11-13T09:57:49.470Z,100.00
2022-11-13T10:00:20.204Z,100.00
2022-11-13T10:03:17.657Z,100.00
2022-11-13T10:05:59.515Z,100.00
2022-11-13T10:08:58.047Z,100.00
2022-11-13T10:11:44.783Z,100.00
2022-11-13T10:14:26.653Z,100.00
2022-11-13T10:17:28.021Z,100.00
2022-11-13T10:20:00.515Z,100.00
2022-11-13T10:23:01.528Z,100.00
2022-11-13T10:25:36.271Z,100.00
2022-11-13T10:31:13.727Z,100.00
2022-11-13T10:33:40.754Z,100.00
2022-11-13T10:36:50.807Z,100.00
2022-11-13T10:39:17.940Z,100.00
2022-11-13T10:41:54.803Z,100.00
2022-11-13T10:44:29.239Z,99.71
2022-11-13T10:48:01.968Z,100.00
2022-11-13T10:50:30.657Z,99.77
2022-11-13T10:52:58.741Z,98.96
2022-11-13T10:55:34.375Z,98.75
2022-11-13T10:58:05.092Z,99.39
2022-11-13T11:00:35.653Z,99.58
2022-11-13T11:03:13.530Z,98.33
2022-11-13T11:05:40.275Z,98.63
2022-11-13T11:08:10.993Z,98.61
2022-11-13T11:10:57.831Z,98.70
2022-11-13T11:13:24.730Z,96.82
2022-11-13T11:15:58.146Z,96.80
2022-11-13T11:18:53.370Z,96.46
2022-11-13T11:21:27.199Z,95.65
2022-11-13T11:24:01.352Z,95.56
2022-11-13T11:26:45.487Z,94.83
2022-11-13T11:29:50.954Z,95.56
2022-11-13T11:32:49.276Z,92.74
2022-11-13T11:35:24.780Z,93.48
2022-11-13T11:38:29.688Z,93.55
2022-11-13T11:41:16.654Z,91.57
2022-11-13T11:43:48.915Z,91.48
2022-11-13T11:46:23.149Z,89.94
2022-11-13T11:48:51.095Z,90.74
2022-11-13T11:51:34.612Z,90.12
2022-11-13T11:54:40.772Z,88.99
2022-11-13T11:57:49.791Z,87.41
2022-11-13T12:00:21.270Z,87.02
2022-11-13T12:02:59.920Z,88.22
2022-11-13T12:05:52.943Z,87.84
2022-11-13T12:08:37.509Z,87.88
2022-11-13T12:11:22.216Z,89.24
2022-11-13T12:14:13.948Z,87.76
2022-11-13T12:16:52.288Z,85.60
2022-11-13T12:20:11.372Z,85.92
2022-11-13T12:23:11.832Z,83.58
2022-11-13T12:25:57.472Z,82.83
2022-11-13T12:28:41.442Z,81.66
2022-11-13T12:31:39.155Z,82.54
2022-11-13T12:34:33.677Z,81.35
2022-11-13T12:37:06.648Z,80.03
2022-11-13T12:39:33.637Z,79.29
2022-11-13T12:42:09.388Z,78.67
2022-11-13T12:45:09.400Z,79.29
2022-11-13T12:47:37.048Z,79.41
2022-11-13T12:50:31.826Z,79.30
2022-11-13T12:53:06.439Z,79.70
2022-11-13T12:55:37.756Z,79.70
2022-11-13T12:58:21.176Z,78.67
2022-11-13T13:01:02.262Z,78.32
2022-11-13T13:03:41.172Z,79.21
2022-11-13T13:06:19.464Z,80.68
2022-11-13T13:09:11.031Z,81.63
2022-11-13T13:11:55.054Z,81.50
2022-11-13T13:15:20.113Z,81.59
2022-11-13T13:17:46.836Z,83.33
2022-11-13T13:20:28.408Z,84.66
2022-11-13T13:23:00.364Z,85.51
2022-11-13T13:25:35.715Z,85.54
2022-11-13T13:28:19.637Z,85.09
2022-11-13T13:31:27.614Z,85.57
2022-11-13T13:34:15.847Z,87.53
2022-11-13T13:37:03.757Z,89.31
2022-11-13T13:39:43.106Z,90.25
2022-11-13T13:42:57.547Z,91.13
2022-11-13T13:45:58.156Z,92.08
2022-11-13T13:48:27.643Z,92.16
2022-11-13T13:50:55.471Z,93.29
2022-11-13T13:53:27.832Z,92.46
2022-11-13T13:55:59.239Z,91.74
2022-11-13T13:58:33.698Z,91.52
2022-11-13T14:01:22.456Z,92.95
2022-11-13T14:03:49.251Z,92.76
2022-11-13T14:06:25.929Z,93.21
2022-11-13T14:08:52.624Z,94.40
2022-11-13T14:11:29.941Z,94.99
2022-11-13T14:14:08.986Z,94.54
2022-11-13T14:16:48.175Z,94.39
2022-11-13T14:19:14.987Z,93.63
2022-11-13T14:21:45.439Z,95.03
2022-11-13T14:24:36.447Z,93.78
2022-11-13T14:27:07.576Z,93.74
2022-11-13T14:29:45.677Z,93.11
2022-11-13T14:32:22.451Z,92.64
2022-11-13T14:34:52.328Z,93.45
2022-11-13T14:37:45.444Z,92.70
2022-11-13T14:40:33.932Z,93.25
2022-11-13T14:43:07.642Z,92.60
2022-11-13T14:45:34.890Z,93.02
2022-11-13T14:48:27.959Z,93.29
2022-11-13T14:50:59.438Z,93.51
2022-11-13T14:53:37.893Z,92.96
2022-11-13T14:56:09.928Z,93.22
2022-11-13T14:58:47.115Z,93.49
2022-11-13T15:01:19.340Z,94.77
2022-11-13T15:03:47.960Z,94.30
2022-11-13T15:06:15.942Z,94.64
2022-11-13T15:08:44.365Z,94.94
2022-11-13T15:11:15.243Z,94.46
2022-11-13T15:13:42.338Z,93.86
2022-11-13T15:16:29.235Z,94.03
2022-11-13T15:19:09.979Z,94.08
2022-11-13T15:21:36.685Z,94.79
2022-11-13T15:24:03.568Z,94.44
2022-11-13T15:26:30.350Z,94.28
2022-11-13T15:28:57.035Z,94.55
2022-11-13T15:31:40.340Z,94.81
2022-11-13T15:34:11.361Z,94.84
2022-11-13T15:36:38.907Z,95.78
2022-11-13T15:39:15.645Z,95.47
2022-11-13T15:41:47.897Z,94.78
2022-11-13T15:44:15.916Z,94.69
2022-11-13T15:46:42.725Z,94.51
2022-11-13T15:49:09.413Z,95.40
2022-11-13T15:51:49.031Z,94.74
2022-11-13T15:54:30.723Z,95.37
2022-11-13T15:56:57.439Z,95.80
2022-11-13T15:59:24.193Z,96.25
2022-11-13T16:01:56.586Z,95.73
2022-11-13T16:04:26.704Z,96.66
2022-11-13T16:07:01.218Z,96.55
2022-11-13T16:09:27.991Z,96.47
2022-11-13T16:11:54.861Z,96.55
2022-11-13T16:14:24.839Z,96.71
2022-11-13T16:16:52.808Z,96.52
2022-11-13T16:19:25.661Z,95.98
2022-11-13T16:21:54.206Z,96.44
2022-11-13T16:24:24.152Z,97.31
2022-11-13T16:26:56.953Z,97.04
2022-11-13T16:29:24.837Z,97.07
2022-11-13T16:31:52.547Z,97.53
2022-11-13T16:34:21.028Z,97.20
2022-11-13T16:36:47.974Z,97.45
2022-11-13T16:39:17.724Z,96.77
2022-11-13T16:41:44.568Z,97.40
2022-11-13T16:44:11.287Z,97.52
2022-11-13T16:46:41.804Z,96.41
2022-11-13T16:49:20.249Z,97.79
2022-11-13T16:51:47.093Z,98.45
2022-11-13T16:54:14.264Z,97.92
2022-11-13T16:56:41.098Z,97.91
2022-11-13T16:59:10.619Z,97.27
2022-11-13T17:01:37.456Z,97.69
2022-11-13T17:04:04.925Z,97.25
2022-11-13T17:06:36.444Z,97.70
2022-11-13T17:09:04.687Z,97.81
2022-11-13T17:11:37.662Z,98.57
2022-11-13T17:14:04.763Z,99.18
2022-11-13T17:16:32.413Z,99.83
2022-11-13T17:19:00.500Z,99.61
2022-11-13T17:21:29.225Z,99.91
2022-11-13T17:24:02.429Z,98.95
2022-11-13T17:26:31.501Z,98.98
2022-11-13T17:28:59.964Z,99.12
2022-11-13T17:31:26.911Z,99.86
2022-11-13T17:33:55.009Z,99.74
2022-11-13T17:36:22.530Z,99.25
2022-11-13T17:38:49.496Z,99.48
2022-11-13T17:41:17.385Z,98.77
2022-11-13T17:43:44.615Z,98.79
2022-11-13T17:46:14.886Z,98.90
2022-11-13T17:48:42.625Z,99.14
2022-11-13T17:51:13.597Z,98.77
2022-11-13T17:53:40.748Z,98.97
2022-11-13T17:56:11.764Z,99.39
2022-11-13T17:58:41.403Z,99.74
2022-11-13T18:01:15.755Z,99.22
2022-11-13T18:03:43.153Z,98.77
2022-11-13T18:06:19.528Z,99.43
2022-11-13T18:08:47.287Z,99.38
2022-11-13T18:11:19.464Z,98.38
2022-11-13T18:13:48.331Z,99.66
2022-11-13T18:16:25.770Z,99.06
2022-11-13T18:18:55.600Z,98.32
2022-11-13T18:21:29.667Z,100.00
2022-11-13T18:23:58.796Z,99.85
2022-11-13T18:26:27.077Z,100.00
2022-11-13T18:28:54.371Z,100.00
2022-11-13T18:31:21.604Z,100.00
2022-11-13T18:33:48.378Z,100.00
2022-11-13T18:36:15.716Z,100.00
2022-11-13T18:38:43.557Z,100.00
2022-11-13T18:41:23.414Z,100.00
2022-11-13T18:43:51.972Z,100.00
2022-11-13T18:46:21.621Z,100.00
2022-11-13T18:48:49.349Z,100.00
2022-11-13T18:51:22.144Z,100.00
2022-11-13T18:53:50.869Z,100.00
2022-11-13T18:56:31.861Z,100.00
2022-11-13T18:59:00.019Z,100.00
2022-11-13T19:01:30.574Z,100.00
2022-11-13T19:04:21.607Z,100.00
2022-11-13T19:06:49.459Z,100.00
2022-11-13T19:09:17.763Z,100.00
2022-11-13T19:11:45.504Z,100.00
2022-11-13T19:14:18.010Z,100.00
2022-11-13T19:16:44.895Z,100.00
2022-11-13T19:19:22.291Z,100.00
2022-11-13T19:21:50.105Z,100.00
2022-11-13T19:24:17.278Z,100.00
2022-11-13T19:26:44.955Z,100.00
2022-11-13T19:29:12.140Z,100.00
2022-11-13T19:31:38.902Z,100.00
2022-11-13T19:34:07.832Z,100.00
2022-11-13T19:36:36.342Z,100.00
2022-11-13T19:39:04.861Z,100.00
2022-11-13T19:41:31.604Z,100.00
2022-11-13T19:43:59.869Z,100.00
2022-11-13T19:46:27.390Z,100.00
2022-11-13T19:48:54.296Z,100.00
2022-11-13T19:51:24.532Z,100.00
2022-11-13T19:53:56.268Z,100.00
2022-11-13T19:56:25.688Z,100.00
2022-11-13T19:58:52.857Z,100.00
2022-11-13T20:01:25.759Z,100.00
2022-11-13T20:04:00.963Z,100.00
2022-11-13T20:06:29.622Z,100.00
2022-11-13T20:08:58.913Z,100.00
2022-11-13T20:11:25.921Z,100.00
2022-11-13T20:13:52.856Z,100.00
2022-11-13T20:16:22.064Z,100.00
2022-11-13T20:18:49.552Z,100.00
2022-11-13T20:21:26.883Z,100.00
2022-11-13T20:23:56.846Z,100.00
2022-11-13T20:26:24.360Z,100.00
2022-11-13T20:28:57.373Z,100.00
2022-11-13T20:31:25.714Z,100.00
2022-11-13T20:33:55.145Z,100.00
2022-11-13T20:36:23.411Z,100.00
2022-11-13T20:38:53.972Z,100.00
2022-11-13T20:41:21.350Z,100.00
2022-11-13T20:43:49.013Z,100.00
2022-11-13T20:46:19.128Z,100.00
2022-11-13T20:48:46.385Z,100.00
2022-11-13T20:51:19.504Z,100.00
2022-11-13T20:53:47.638Z,100.00
2022-11-13T20:56:15.624Z,100.00
2022-11-13T20:58:42.375Z,100.00
2022-11-13T21:01:15.794Z,100.00
2022-11-13T21:03:44.756Z,100.00
2022-11-13T21:06:15.394Z,100.00
2022-11-13T21:08:43.129Z,100.00
2022-11-13T21:11:15.698Z,100.00
2022-11-13T21:13:42.433Z,100.00
2022-11-13T21:16:10.182Z,100.00
2022-11-13T21:18:37.919Z,100.00
2022-11-13T21:21:14.106Z,100.00
2022-11-13T21:23:40.836Z,100.00
2022-11-13T21:26:09.351Z,100.00
2022-11-13T21:28:36.819Z,100.00
2022-11-13T21:31:07.828Z,100.00
2022-11-13T21:33:39.284Z,100.00
2022-11-13T21:36:28.544Z,100.00
2022-11-13T21:38:56.413Z,100.00
2022-11-13T21:41:25.170Z,100.00
2022-11-13T21:44:04.707Z,100.00
2022-11-13T21:46:41.928Z,100.00
2022-11-13T21:49:13.528Z,100.00
2022-11-13T21:51:43.092Z,100.00
2022-11-13T21:54:10.136Z,100.00
2022-11-13T21:56:38.599Z,100.00
2022-11-13T21:59:06.945Z,100.00
2022-11-13T22:01:38.231Z,100.00
2022-11-13T22:04:06.410Z,100.00
2022-11-13T22:06:37.731Z,100.00
2022-11-13T22:09:14.789Z,100.00
2022-11-13T22:11:42.143Z,100.00
2022-11-13T22:14:09.074Z,100.00
2022-11-13T22:16:39.692Z,100.00
2022-11-13T22:19:11.588Z,100.00
2022-11-13T22:21:38.896Z,100.00
2022-11-13T22:24:06.001Z,100.00
2022-11-13T22:26:41.065Z,100.00
2022-11-13T22:29:08.772Z,100.00
2022-11-13T22:31:37.010Z,100.00
2022-11-13T22:34:04.421Z,100.00
2022-11-13T22:36:36.470Z,100.00
2022-11-13T22:39:04.683Z,100.00
2022-11-13T22:41:34.460Z,100.00
2022-11-13T22:44:05.234Z,100.00
2022-11-13T22:46:34.977Z,100.00
2022-11-13T22:49:03.764Z,100.00
2022-11-13T22:51:35.235Z,100.00
2022-11-13T22:54:05.840Z,100.00
2022-11-13T22:56:34.434Z,100.00
2022-11-13T22:59:03.497Z,100.00
2022-11-13T23:01:36.354Z,100.00
2022-11-13T23:04:06.615Z,100.00
2022-11-13T23:06:36.930Z,100.00
2022-11-13T23:09:05.522Z,100.00
2022-11-13T23:11:40.732Z,100.00
2022-11-13T23:14:13.161Z,100.00
2022-11-13T23:16:40.060Z,100.00
2022-11-13T23:19:07.563Z,100.00
2022-11-13T23:21:34.297Z,100.00
2022-11-13T23:24:02.190Z,100.00
2022-11-13T23:26:28.977Z,100.00
2022-11-13T23:28:56.903Z,100.00
2022-11-13T23:31:23.692Z,100.00
2022-11-13T23:33:50.565Z,100.00
2022-11-13T23:36:20.509Z,100.00
2022-11-13T23:38:47.360Z,100.00
2022-11-13T23:41:14.095Z,100.00
2022-11-13T23:44:07.638Z,100.00
2022-11-13T23:46:27.635Z,100.00
2022-11-13T23:48:54.355Z,100.00
2022-11-13T23:51:21.071Z,100.00
2022-11-13T23:53:47.830Z,100.00
2022-11-13T23:56:14.524Z,100.00
2022-11-13T23:58:41.240Z,100.00
